sensor_id;sensor_type;location;lat;lon;timestamp;P1;durP1;ratioP1;P2;durP2;ratioP2
14611;SDS011;7392;52.078;11.650;2024-02-26T00:00:44;2.17;;;1.97;;
14611;SDS011;7392;52.078;11.650;2024-02-26T00:03:14;2.73;;;2.20;;
14611;SDS011;7392;52.078;11.650;2024-02-26T00:05:42;3.73;;;2.40;;
14611;SDS011;7392;52.078;11.650;2024-02-26T00:08:10;2.10;;;1.90;;
14611;SDS011;7392;52.078;11.650;2024-02-26T00:10:38;1.90;;;1.70;;
14611;SDS011;7392;52.078;11.650;2024-02-26T00:13:06;3.07;;;2.40;;
14611;SDS011;7392;52.078;11.650;2024-02-26T00:15:34;3.10;;;2.40;;
14611;SDS011;7392;52.078;11.650;2024-02-26T00:18:02;3.30;;;2.20;;
14611;SDS011;7392;52.078;11.650;2024-02-26T00:20:32;2.73;;;2.47;;
14611;SDS011;7392;52.078;11.650;2024-02-26T00:23:00;3.53;;;2.60;;
14611;SDS011;7392;52.078;11.650;2024-02-26T00:25:28;2.87;;;2.30;;
14611;SDS011;7392;52.078;11.650;2024-02-26T00:27:56;2.90;;;2.43;;
14611;SDS011;7392;52.078;11.650;2024-02-26T00:30:24;3.47;;;2.43;;
14611;SDS011;7392;52.078;11.650;2024-02-26T00:32:53;2.50;;;2.23;;
14611;SDS011;7392;52.078;11.650;2024-02-26T00:35:21;3.43;;;2.50;;
14611;SDS011;7392;52.078;11.650;2024-02-26T00:37:50;2.60;;;2.40;;
14611;SDS011;7392;52.078;11.650;2024-02-26T00:40:18;2.57;;;2.30;;
14611;SDS011;7392;52.078;11.650;2024-02-26T00:42:46;2.83;;;2.50;;
14611;SDS011;7392;52.078;11.650;2024-02-26T00:45:14;3.30;;;2.50;;
14611;SDS011;7392;52.078;11.650;2024-02-26T00:47:43;2.67;;;2.20;;
14611;SDS011;7392;52.078;11.650;2024-02-26T00:50:14;2.67;;;2.27;;
14611;SDS011;7392;52.078;11.650;2024-02-26T00:52:42;2.50;;;2.10;;
14611;SDS011;7392;52.078;11.650;2024-02-26T00:55:11;3.07;;;2.50;;
14611;SDS011;7392;52.078;11.650;2024-02-26T00:57:39;2.70;;;2.50;;
14611;SDS011;7392;52.078;11.650;2024-02-26T01:00:08;2.67;;;2.27;;
14611;SDS011;7392;52.078;11.650;2024-02-26T01:02:36;2.80;;;2.50;;
14611;SDS011;7392;52.078;11.650;2024-02-26T01:05:05;3.20;;;2.60;;
14611;SDS011;7392;52.078;11.650;2024-02-26T01:07:33;3.07;;;2.07;;
14611;SDS011;7392;52.078;11.650;2024-02-26T01:10:03;2.90;;;2.37;;
14611;SDS011;7392;52.078;11.650;2024-02-26T01:12:33;3.03;;;2.43;;
14611;SDS011;7392;52.078;11.650;2024-02-26T01:15:01;2.70;;;2.20;;
14611;SDS011;7392;52.078;11.650;2024-02-26T01:17:30;4.03;;;2.60;;
14611;SDS011;7392;52.078;11.650;2024-02-26T01:19:58;2.23;;;2.00;;
14611;SDS011;7392;52.078;11.650;2024-02-26T01:22:26;3.10;;;2.10;;
14611;SDS011;7392;52.078;11.650;2024-02-26T01:24:54;3.23;;;2.47;;
14611;SDS011;7392;52.078;11.650;2024-02-26T01:27:23;2.63;;;2.10;;
14611;SDS011;7392;52.078;11.650;2024-02-26T01:29:54;2.37;;;2.17;;
14611;SDS011;7392;52.078;11.650;2024-02-26T01:32:22;3.03;;;2.40;;
14611;SDS011;7392;52.078;11.650;2024-02-26T01:34:50;2.40;;;2.20;;
14611;SDS011;7392;52.078;11.650;2024-02-26T01:37:18;3.73;;;2.30;;
14611;SDS011;7392;52.078;11.650;2024-02-26T01:39:46;3.47;;;2.30;;
14611;SDS011;7392;52.078;11.650;2024-02-26T01:42:13;2.80;;;2.40;;
14611;SDS011;7392;52.078;11.650;2024-02-26T01:44:41;2.50;;;2.23;;
14611;SDS011;7392;52.078;11.650;2024-02-26T01:47:11;3.20;;;2.60;;
14611;SDS011;7392;52.078;11.650;2024-02-26T01:49:40;3.00;;;2.57;;
14611;SDS011;7392;52.078;11.650;2024-02-26T01:52:09;2.30;;;2.10;;
14611;SDS011;7392;52.078;11.650;2024-02-26T01:54:37;2.30;;;2.10;;
14611;SDS011;7392;52.078;11.650;2024-02-26T01:57:08;2.73;;;2.20;;
14611;SDS011;7392;52.078;11.650;2024-02-26T01:59:36;2.40;;;2.20;;
14611;SDS011;7392;52.078;11.650;2024-02-26T02:02:05;2.50;;;2.20;;
14611;SDS011;7392;52.078;11.650;2024-02-26T02:04:37;2.17;;;1.87;;
14611;SDS011;7392;52.078;11.650;2024-02-26T02:07:05;2.37;;;1.83;;
14611;SDS011;7392;52.078;11.650;2024-02-26T02:09:33;2.23;;;1.90;;
14611;SDS011;7392;52.078;11.650;2024-02-26T02:12:01;2.57;;;2.23;;
14611;SDS011;7392;52.078;11.650;2024-02-26T02:14:29;2.60;;;1.97;;
14611;SDS011;7392;52.078;11.650;2024-02-26T02:16:57;2.07;;;1.87;;
14611;SDS011;7392;52.078;11.650;2024-02-26T02:19:25;2.00;;;1.80;;
14611;SDS011;7392;52.078;11.650;2024-02-26T02:21:54;3.07;;;1.83;;
14611;SDS011;7392;52.078;11.650;2024-02-26T02:24:22;2.40;;;2.10;;
14611;SDS011;7392;52.078;11.650;2024-02-26T02:26:50;3.90;;;2.10;;
14611;SDS011;7392;52.078;11.650;2024-02-26T02:29:18;2.63;;;2.23;;
14611;SDS011;7392;52.078;11.650;2024-02-26T02:31:46;3.10;;;2.23;;
14611;SDS011;7392;52.078;11.650;2024-02-26T02:34:14;2.50;;;2.00;;
14611;SDS011;7392;52.078;11.650;2024-02-26T02:36:48;1.70;;;1.60;;
14611;SDS011;7392;52.078;11.650;2024-02-26T02:39:20;2.00;;;1.60;;
14611;SDS011;7392;52.078;11.650;2024-02-26T02:41:48;2.60;;;1.70;;
14611;SDS011;7392;52.078;11.650;2024-02-26T02:44:17;3.47;;;1.83;;
14611;SDS011;7392;52.078;11.650;2024-02-26T02:46:45;2.83;;;1.90;;
14611;SDS011;7392;52.078;11.650;2024-02-26T02:49:12;1.77;;;1.57;;
14611;SDS011;7392;52.078;11.650;2024-02-26T02:51:41;2.07;;;1.63;;
14611;SDS011;7392;52.078;11.650;2024-02-26T02:54:08;1.70;;;1.60;;
14611;SDS011;7392;52.078;11.650;2024-02-26T02:56:38;2.33;;;1.90;;
14611;SDS011;7392;52.078;11.650;2024-02-26T02:59:06;3.10;;;1.50;;
14611;SDS011;7392;52.078;11.650;2024-02-26T03:01:34;2.30;;;1.70;;
14611;SDS011;7392;52.078;11.650;2024-02-26T03:04:02;1.73;;;1.60;;
14611;SDS011;7392;52.078;11.650;2024-02-26T03:06:30;1.90;;;1.70;;
14611;SDS011;7392;52.078;11.650;2024-02-26T03:08:58;2.90;;;1.70;;
14611;SDS011;7392;52.078;11.650;2024-02-26T03:11:27;2.00;;;1.80;;
14611;SDS011;7392;52.078;11.650;2024-02-26T03:13:56;1.80;;;1.60;;
14611;SDS011;7392;52.078;11.650;2024-02-26T03:16:24;1.60;;;1.50;;
14611;SDS011;7392;52.078;11.650;2024-02-26T03:18:52;1.90;;;1.70;;
14611;SDS011;7392;52.078;11.650;2024-02-26T03:21:20;1.57;;;1.47;;
14611;SDS011;7392;52.078;11.650;2024-02-26T03:23:49;2.00;;;1.70;;
14611;SDS011;7392;52.078;11.650;2024-02-26T03:26:17;2.23;;;1.93;;
14611;SDS011;7392;52.078;11.650;2024-02-26T03:28:45;1.87;;;1.70;;
14611;SDS011;7392;52.078;11.650;2024-02-26T03:31:14;1.60;;;1.50;;
14611;SDS011;7392;52.078;11.650;2024-02-26T03:33:42;1.60;;;1.50;;
14611;SDS011;7392;52.078;11.650;2024-02-26T03:36:10;1.73;;;1.60;;
14611;SDS011;7392;52.078;11.650;2024-02-26T03:38:38;1.73;;;1.53;;
14611;SDS011;7392;52.078;11.650;2024-02-26T03:41:06;3.60;;;1.77;;
14611;SDS011;7392;52.078;11.650;2024-02-26T03:43:35;2.07;;;1.67;;
14611;SDS011;7392;52.078;11.650;2024-02-26T03:46:03;3.10;;;2.00;;
14611;SDS011;7392;52.078;11.650;2024-02-26T03:48:35;2.00;;;1.80;;
14611;SDS011;7392;52.078;11.650;2024-02-26T03:51:03;1.90;;;1.50;;
14611;SDS011;7392;52.078;11.650;2024-02-26T03:53:31;2.00;;;1.80;;
14611;SDS011;7392;52.078;11.650;2024-02-26T03:56:02;2.43;;;2.03;;
14611;SDS011;7392;52.078;11.650;2024-02-26T03:58:31;1.90;;;1.70;;
14611;SDS011;7392;52.078;11.650;2024-02-26T04:00:59;2.13;;;1.83;;
14611;SDS011;7392;52.078;11.650;2024-02-26T04:03:27;1.77;;;1.40;;
14611;SDS011;7392;52.078;11.650;2024-02-26T04:05:56;1.50;;;1.40;;
14611;SDS011;7392;52.078;11.650;2024-02-26T04:08:24;1.70;;;1.50;;
14611;SDS011;7392;52.078;11.650;2024-02-26T04:10:52;2.20;;;1.83;;
14611;SDS011;7392;52.078;11.650;2024-02-26T04:13:20;1.47;;;1.37;;
14611;SDS011;7392;52.078;11.650;2024-02-26T04:15:48;1.77;;;1.67;;
14611;SDS011;7392;52.078;11.650;2024-02-26T04:18:16;1.73;;;1.63;;
14611;SDS011;7392;52.078;11.650;2024-02-26T04:20:44;1.77;;;1.50;;
14611;SDS011;7392;52.078;11.650;2024-02-26T04:23:14;1.73;;;1.50;;
14611;SDS011;7392;52.078;11.650;2024-02-26T04:25:42;1.73;;;1.63;;
14611;SDS011;7392;52.078;11.650;2024-02-26T04:28:10;4.87;;;1.83;;
14611;SDS011;7392;52.078;11.650;2024-02-26T04:30:38;2.87;;;1.57;;
14611;SDS011;7392;52.078;11.650;2024-02-26T04:33:06;2.50;;;1.70;;
14611;SDS011;7392;52.078;11.650;2024-02-26T04:35:35;2.70;;;1.67;;
14611;SDS011;7392;52.078;11.650;2024-02-26T04:38:03;1.50;;;1.30;;
14611;SDS011;7392;52.078;11.650;2024-02-26T04:40:33;2.37;;;1.80;;
14611;SDS011;7392;52.078;11.650;2024-02-26T04:43:00;2.07;;;1.60;;
14611;SDS011;7392;52.078;11.650;2024-02-26T04:45:28;2.67;;;2.20;;
14611;SDS011;7392;52.078;11.650;2024-02-26T04:47:57;2.00;;;1.80;;
14611;SDS011;7392;52.078;11.650;2024-02-26T04:50:25;2.17;;;1.77;;
14611;SDS011;7392;52.078;11.650;2024-02-26T04:52:53;2.43;;;1.70;;
14611;SDS011;7392;52.078;11.650;2024-02-26T04:55:21;2.13;;;1.93;;
14611;SDS011;7392;52.078;11.650;2024-02-26T04:57:50;2.13;;;1.70;;
14611;SDS011;7392;52.078;11.650;2024-02-26T05:00:18;2.07;;;1.70;;
14611;SDS011;7392;52.078;11.650;2024-02-26T05:02:46;1.70;;;1.60;;
14611;SDS011;7392;52.078;11.650;2024-02-26T05:05:15;2.17;;;1.80;;
14611;SDS011;7392;52.078;11.650;2024-02-26T05:07:43;2.20;;;1.90;;
14611;SDS011;7392;52.078;11.650;2024-02-26T05:10:12;1.90;;;1.40;;
14611;SDS011;7392;52.078;11.650;2024-02-26T05:12:40;2.80;;;1.93;;
14611;SDS011;7392;52.078;11.650;2024-02-26T05:15:10;2.23;;;2.03;;
14611;SDS011;7392;52.078;11.650;2024-02-26T05:17:44;2.03;;;1.80;;
14611;SDS011;7392;52.078;11.650;2024-02-26T05:20:12;2.10;;;1.73;;
14611;SDS011;7392;52.078;11.650;2024-02-26T05:22:40;2.23;;;1.70;;
14611;SDS011;7392;52.078;11.650;2024-02-26T05:25:08;1.63;;;1.53;;
14611;SDS011;7392;52.078;11.650;2024-02-26T05:27:36;2.10;;;1.70;;
14611;SDS011;7392;52.078;11.650;2024-02-26T05:30:05;1.93;;;1.73;;
14611;SDS011;7392;52.078;11.650;2024-02-26T05:32:35;2.30;;;1.90;;
14611;SDS011;7392;52.078;11.650;2024-02-26T05:35:03;2.97;;;1.73;;
14611;SDS011;7392;52.078;11.650;2024-02-26T05:37:32;2.43;;;1.90;;
14611;SDS011;7392;52.078;11.650;2024-02-26T05:40:00;2.10;;;1.77;;
14611;SDS011;7392;52.078;11.650;2024-02-26T05:42:30;2.43;;;1.70;;
14611;SDS011;7392;52.078;11.650;2024-02-26T05:45:00;1.77;;;1.60;;
14611;SDS011;7392;52.078;11.650;2024-02-26T05:47:32;1.70;;;1.60;;
14611;SDS011;7392;52.078;11.650;2024-02-26T05:50:02;2.20;;;1.57;;
14611;SDS011;7392;52.078;11.650;2024-02-26T05:52:30;1.60;;;1.40;;
14611;SDS011;7392;52.078;11.650;2024-02-26T05:54:58;1.40;;;1.30;;
14611;SDS011;7392;52.078;11.650;2024-02-26T05:57:26;2.20;;;1.77;;
14611;SDS011;7392;52.078;11.650;2024-02-26T05:59:54;1.90;;;1.63;;
14611;SDS011;7392;52.078;11.650;2024-02-26T06:02:22;1.80;;;1.70;;
14611;SDS011;7392;52.078;11.650;2024-02-26T06:04:50;2.00;;;1.70;;
14611;SDS011;7392;52.078;11.650;2024-02-26T06:07:19;1.70;;;1.60;;
14611;SDS011;7392;52.078;11.650;2024-02-26T06:09:47;2.50;;;1.90;;
14611;SDS011;7392;52.078;11.650;2024-02-26T06:12:15;2.03;;;1.87;;
14611;SDS011;7392;52.078;11.650;2024-02-26T06:14:44;2.80;;;2.00;;
14611;SDS011;7392;52.078;11.650;2024-02-26T06:17:12;2.17;;;1.83;;
14611;SDS011;7392;52.078;11.650;2024-02-26T06:19:39;2.50;;;1.93;;
14611;SDS011;7392;52.078;11.650;2024-02-26T06:22:08;2.17;;;1.87;;
14611;SDS011;7392;52.078;11.650;2024-02-26T06:24:37;2.30;;;2.00;;
14611;SDS011;7392;52.078;11.650;2024-02-26T06:27:05;2.20;;;1.87;;
14611;SDS011;7392;52.078;11.650;2024-02-26T06:29:33;2.63;;;2.03;;
14611;SDS011;7392;52.078;11.650;2024-02-26T06:32:01;2.37;;;2.10;;
14611;SDS011;7392;52.078;11.650;2024-02-26T06:34:29;2.40;;;1.97;;
14611;SDS011;7392;52.078;11.650;2024-02-26T06:36:58;2.20;;;1.90;;
14611;SDS011;7392;52.078;11.650;2024-02-26T06:39:26;3.93;;;2.30;;
14611;SDS011;7392;52.078;11.650;2024-02-26T06:41:55;2.37;;;1.90;;
14611;SDS011;7392;52.078;11.650;2024-02-26T06:44:27;2.47;;;1.93;;
14611;SDS011;7392;52.078;11.650;2024-02-26T06:46:58;2.60;;;1.73;;
14611;SDS011;7392;52.078;11.650;2024-02-26T06:49:26;2.37;;;1.90;;
14611;SDS011;7392;52.078;11.650;2024-02-26T06:51:55;2.03;;;1.83;;
14611;SDS011;7392;52.078;11.650;2024-02-26T06:54:23;2.50;;;1.80;;
14611;SDS011;7392;52.078;11.650;2024-02-26T06:56:51;2.80;;;1.90;;
14611;SDS011;7392;52.078;11.650;2024-02-26T06:59:21;2.23;;;1.80;;
14611;SDS011;7392;52.078;11.650;2024-02-26T07:01:50;1.87;;;1.67;;
14611;SDS011;7392;52.078;11.650;2024-02-26T07:04:18;2.00;;;1.80;;
14611;SDS011;7392;52.078;11.650;2024-02-26T07:06:46;1.87;;;1.53;;
14611;SDS011;7392;52.078;11.650;2024-02-26T07:09:15;2.57;;;1.93;;
14611;SDS011;7392;52.078;11.650;2024-02-26T07:11:43;1.70;;;1.60;;
14611;SDS011;7392;52.078;11.650;2024-02-26T07:14:11;2.03;;;1.87;;
14611;SDS011;7392;52.078;11.650;2024-02-26T07:16:41;2.07;;;1.80;;
14611;SDS011;7392;52.078;11.650;2024-02-26T07:19:09;2.70;;;1.87;;
14611;SDS011;7392;52.078;11.650;2024-02-26T07:21:37;2.70;;;1.90;;
14611;SDS011;7392;52.078;11.650;2024-02-26T07:24:06;2.27;;;1.60;;
14611;SDS011;7392;52.078;11.650;2024-02-26T07:26:34;2.10;;;1.90;;
14611;SDS011;7392;52.078;11.650;2024-02-26T07:29:02;2.00;;;1.80;;
14611;SDS011;7392;52.078;11.650;2024-02-26T07:31:30;1.67;;;1.53;;
14611;SDS011;7392;52.078;11.650;2024-02-26T07:33:59;1.93;;;1.70;;
14611;SDS011;7392;52.078;11.650;2024-02-26T07:36:28;2.30;;;2.00;;
14611;SDS011;7392;52.078;11.650;2024-02-26T07:38:56;1.90;;;1.70;;
14611;SDS011;7392;52.078;11.650;2024-02-26T07:41:24;1.70;;;1.60;;
14611;SDS011;7392;52.078;11.650;2024-02-26T07:43:53;2.30;;;1.90;;
14611;SDS011;7392;52.078;11.650;2024-02-26T07:46:20;1.93;;;1.50;;
14611;SDS011;7392;52.078;11.650;2024-02-26T07:48:49;1.97;;;1.70;;
14611;SDS011;7392;52.078;11.650;2024-02-26T07:51:19;2.03;;;1.67;;
14611;SDS011;7392;52.078;11.650;2024-02-26T07:53:47;2.70;;;1.80;;
14611;SDS011;7392;52.078;11.650;2024-02-26T07:56:15;1.87;;;1.63;;
14611;SDS011;7392;52.078;11.650;2024-02-26T07:58:43;1.87;;;1.77;;
14611;SDS011;7392;52.078;11.650;2024-02-26T08:01:12;2.43;;;2.00;;
14611;SDS011;7392;52.078;11.650;2024-02-26T08:03:40;2.33;;;1.80;;
14611;SDS011;7392;52.078;11.650;2024-02-26T08:06:08;2.90;;;1.97;;
14611;SDS011;7392;52.078;11.650;2024-02-26T08:08:38;2.63;;;2.37;;
14611;SDS011;7392;52.078;11.650;2024-02-26T08:11:06;3.70;;;2.77;;
14611;SDS011;7392;52.078;11.650;2024-02-26T08:13:35;3.27;;;2.60;;
14611;SDS011;7392;52.078;11.650;2024-02-26T08:16:03;3.50;;;2.73;;
14611;SDS011;7392;52.078;11.650;2024-02-26T08:18:33;3.43;;;2.70;;
14611;SDS011;7392;52.078;11.650;2024-02-26T08:21:01;4.30;;;3.23;;
14611;SDS011;7392;52.078;11.650;2024-02-26T08:23:30;5.03;;;3.60;;
14611;SDS011;7392;52.078;11.650;2024-02-26T08:25:59;4.40;;;3.53;;
14611;SDS011;7392;52.078;11.650;2024-02-26T08:28:27;3.90;;;3.20;;
14611;SDS011;7392;52.078;11.650;2024-02-26T08:30:55;3.77;;;3.37;;
14611;SDS011;7392;52.078;11.650;2024-02-26T08:33:23;4.47;;;3.37;;
14611;SDS011;7392;52.078;11.650;2024-02-26T08:35:51;6.07;;;3.50;;
14611;SDS011;7392;52.078;11.650;2024-02-26T08:38:19;4.40;;;3.57;;
14611;SDS011;7392;52.078;11.650;2024-02-26T08:40:48;4.77;;;4.27;;
14611;SDS011;7392;52.078;11.650;2024-02-26T08:43:18;4.57;;;3.47;;
14611;SDS011;7392;52.078;11.650;2024-02-26T08:45:46;5.17;;;3.57;;
14611;SDS011;7392;52.078;11.650;2024-02-26T08:48:14;4.47;;;3.40;;
14611;SDS011;7392;52.078;11.650;2024-02-26T08:50:43;4.60;;;3.27;;
14611;SDS011;7392;52.078;11.650;2024-02-26T08:53:11;4.23;;;3.73;;
14611;SDS011;7392;52.078;11.650;2024-02-26T08:55:39;4.73;;;4.20;;
14611;SDS011;7392;52.078;11.650;2024-02-26T08:58:07;5.47;;;4.30;;
14611;SDS011;7392;52.078;11.650;2024-02-26T09:00:36;4.67;;;3.90;;
14611;SDS011;7392;52.078;11.650;2024-02-26T09:03:04;4.83;;;3.70;;
14611;SDS011;7392;52.078;11.650;2024-02-26T09:05:32;4.83;;;3.97;;
14611;SDS011;7392;52.078;11.650;2024-02-26T09:08:01;4.70;;;3.80;;
14611;SDS011;7392;52.078;11.650;2024-02-26T09:10:29;4.33;;;3.90;;
14611;SDS011;7392;52.078;11.650;2024-02-26T09:12:56;4.17;;;3.67;;
14611;SDS011;7392;52.078;11.650;2024-02-26T09:15:24;4.60;;;3.87;;
14611;SDS011;7392;52.078;11.650;2024-02-26T09:17:54;4.80;;;4.30;;
14611;SDS011;7392;52.078;11.650;2024-02-26T09:20:22;4.67;;;4.10;;
14611;SDS011;7392;52.078;11.650;2024-02-26T09:22:50;8.20;;;4.50;;
14611;SDS011;7392;52.078;11.650;2024-02-26T09:25:18;5.03;;;4.53;;
14611;SDS011;7392;52.078;11.650;2024-02-26T09:27:46;4.37;;;3.93;;
14611;SDS011;7392;52.078;11.650;2024-02-26T09:30:14;4.87;;;4.37;;
14611;SDS011;7392;52.078;11.650;2024-02-26T09:32:45;5.80;;;4.27;;
14611;SDS011;7392;52.078;11.650;2024-02-26T09:35:15;5.40;;;4.00;;
14611;SDS011;7392;52.078;11.650;2024-02-26T09:37:43;5.20;;;4.23;;
14611;SDS011;7392;52.078;11.650;2024-02-26T09:40:11;5.47;;;4.53;;
14611;SDS011;7392;52.078;11.650;2024-02-26T09:42:41;4.80;;;4.30;;
14611;SDS011;7392;52.078;11.650;2024-02-26T09:45:12;5.10;;;4.27;;
14611;SDS011;7392;52.078;11.650;2024-02-26T09:47:45;4.77;;;4.20;;
14611;SDS011;7392;52.078;11.650;2024-02-26T09:50:17;6.13;;;4.47;;
14611;SDS011;7392;52.078;11.650;2024-02-26T09:52:49;5.07;;;4.47;;
14611;SDS011;7392;52.078;11.650;2024-02-26T09:55:19;4.77;;;4.27;;
14611;SDS011;7392;52.078;11.650;2024-02-26T09:57:47;4.43;;;4.03;;
14611;SDS011;7392;52.078;11.650;2024-02-26T10:00:19;4.53;;;4.13;;
14611;SDS011;7392;52.078;11.650;2024-02-26T10:02:49;5.47;;;3.93;;
14611;SDS011;7392;52.078;11.650;2024-02-26T10:05:20;5.30;;;4.07;;
14611;SDS011;7392;52.078;11.650;2024-02-26T10:07:49;4.43;;;3.70;;
14611;SDS011;7392;52.078;11.650;2024-02-26T10:10:18;4.33;;;3.90;;
14611;SDS011;7392;52.078;11.650;2024-02-26T10:12:47;4.87;;;4.30;;
14611;SDS011;7392;52.078;11.650;2024-02-26T10:15:15;5.83;;;4.20;;
14611;SDS011;7392;52.078;11.650;2024-02-26T10:17:43;3.60;;;3.30;;
14611;SDS011;7392;52.078;11.650;2024-02-26T10:20:11;4.20;;;3.40;;
14611;SDS011;7392;52.078;11.650;2024-02-26T10:22:43;4.60;;;3.77;;
14611;SDS011;7392;52.078;11.650;2024-02-26T10:25:12;5.30;;;3.87;;
14611;SDS011;7392;52.078;11.650;2024-02-26T10:27:40;4.30;;;3.83;;
14611;SDS011;7392;52.078;11.650;2024-02-26T10:30:19;4.63;;;4.17;;
14611;SDS011;7392;52.078;11.650;2024-02-26T10:32:49;4.83;;;4.03;;
14611;SDS011;7392;52.078;11.650;2024-02-26T10:35:18;4.67;;;4.10;;
14611;SDS011;7392;52.078;11.650;2024-02-26T10:37:49;4.87;;;4.07;;
14611;SDS011;7392;52.078;11.650;2024-02-26T10:40:18;5.63;;;4.93;;
14611;SDS011;7392;52.078;11.650;2024-02-26T10:42:46;5.40;;;4.27;;
14611;SDS011;7392;52.078;11.650;2024-02-26T10:45:14;4.40;;;4.00;;
14611;SDS011;7392;52.078;11.650;2024-02-26T10:47:42;4.37;;;3.90;;
14611;SDS011;7392;52.078;11.650;2024-02-26T10:50:11;4.13;;;3.73;;
14611;SDS011;7392;52.078;11.650;2024-02-26T10:52:43;4.33;;;3.77;;
14611;SDS011;7392;52.078;11.650;2024-02-26T10:55:14;4.67;;;3.77;;
14611;SDS011;7392;52.078;11.650;2024-02-26T10:57:46;6.40;;;4.43;;
14611;SDS011;7392;52.078;11.650;2024-02-26T11:00:15;4.63;;;4.00;;
14611;SDS011;7392;52.078;11.650;2024-02-26T11:02:44;4.53;;;4.07;;
14611;SDS011;7392;52.078;11.650;2024-02-26T11:05:13;4.97;;;4.40;;
14611;SDS011;7392;52.078;11.650;2024-02-26T11:07:42;5.27;;;4.27;;
14611;SDS011;7392;52.078;11.650;2024-02-26T11:10:15;4.70;;;4.20;;
14611;SDS011;7392;52.078;11.650;2024-02-26T11:12:44;4.47;;;4.07;;
14611;SDS011;7392;52.078;11.650;2024-02-26T11:15:13;4.80;;;4.20;;
14611;SDS011;7392;52.078;11.650;2024-02-26T11:17:43;6.60;;;5.47;;
14611;SDS011;7392;52.078;11.650;2024-02-26T11:20:14;4.97;;;4.47;;
14611;SDS011;7392;52.078;11.650;2024-02-26T11:22:55;6.57;;;4.67;;
14611;SDS011;7392;52.078;11.650;2024-02-26T11:25:23;5.13;;;4.50;;
14611;SDS011;7392;52.078;11.650;2024-02-26T11:27:54;5.07;;;4.47;;
14611;SDS011;7392;52.078;11.650;2024-02-26T11:31:14;5.63;;;5.03;;
14611;SDS011;7392;52.078;11.650;2024-02-26T11:33:44;6.67;;;4.93;;
14611;SDS011;7392;52.078;11.650;2024-02-26T11:36:13;5.73;;;4.80;;
14611;SDS011;7392;52.078;11.650;2024-02-26T11:38:42;5.37;;;4.57;;
14611;SDS011;7392;52.078;11.650;2024-02-26T11:41:10;5.23;;;4.73;;
14611;SDS011;7392;52.078;11.650;2024-02-26T11:43:50;6.40;;;4.83;;
14611;SDS011;7392;52.078;11.650;2024-02-26T11:46:28;5.47;;;4.77;;
14611;SDS011;7392;52.078;11.650;2024-02-26T11:49:00;4.77;;;4.27;;
14611;SDS011;7392;52.078;11.650;2024-02-26T11:51:32;4.93;;;4.43;;
14611;SDS011;7392;52.078;11.650;2024-02-26T11:54:01;6.60;;;5.17;;
14611;SDS011;7392;52.078;11.650;2024-02-26T11:56:29;5.90;;;5.00;;
14611;SDS011;7392;52.078;11.650;2024-02-26T11:59:03;7.13;;;5.60;;
14611;SDS011;7392;52.078;11.650;2024-02-26T12:01:44;6.10;;;5.23;;
14611;SDS011;7392;52.078;11.650;2024-02-26T12:04:16;5.80;;;5.20;;
14611;SDS011;7392;52.078;11.650;2024-02-26T12:06:47;7.50;;;6.60;;
14611;SDS011;7392;52.078;11.650;2024-02-26T12:09:30;6.67;;;5.63;;
14611;SDS011;7392;52.078;11.650;2024-02-26T12:11:59;6.70;;;5.90;;
14611;SDS011;7392;52.078;11.650;2024-02-26T12:14:29;7.27;;;6.10;;
14611;SDS011;7392;52.078;11.650;2024-02-26T12:17:02;7.20;;;5.50;;
14611;SDS011;7392;52.078;11.650;2024-02-26T12:19:33;5.70;;;5.07;;
14611;SDS011;7392;52.078;11.650;2024-02-26T12:22:06;5.60;;;5.10;;
14611;SDS011;7392;52.078;11.650;2024-02-26T12:24:34;5.87;;;5.27;;
14611;SDS011;7392;52.078;11.650;2024-02-26T12:27:02;6.00;;;5.40;;
14611;SDS011;7392;52.078;11.650;2024-02-26T12:29:31;6.47;;;5.27;;
14611;SDS011;7392;52.078;11.650;2024-02-26T12:31:59;6.40;;;5.13;;
14611;SDS011;7392;52.078;11.650;2024-02-26T12:34:31;6.27;;;5.43;;
14611;SDS011;7392;52.078;11.650;2024-02-26T12:37:00;7.47;;;5.47;;
14611;SDS011;7392;52.078;11.650;2024-02-26T12:39:28;6.30;;;5.47;;
14611;SDS011;7392;52.078;11.650;2024-02-26T12:41:57;7.50;;;5.50;;
14611;SDS011;7392;52.078;11.650;2024-02-26T12:44:26;8.10;;;6.17;;
14611;SDS011;7392;52.078;11.650;2024-02-26T12:46:59;6.23;;;5.60;;
14611;SDS011;7392;52.078;11.650;2024-02-26T12:49:29;5.50;;;4.90;;
14611;SDS011;7392;52.078;11.650;2024-02-26T12:51:59;7.00;;;5.33;;
14611;SDS011;7392;52.078;11.650;2024-02-26T12:54:28;7.67;;;5.80;;
14611;SDS011;7392;52.078;11.650;2024-02-26T12:56:58;7.10;;;5.63;;
14611;SDS011;7392;52.078;11.650;2024-02-26T12:59:27;7.13;;;6.40;;
14611;SDS011;7392;52.078;11.650;2024-02-26T13:01:57;8.00;;;6.20;;
14611;SDS011;7392;52.078;11.650;2024-02-26T13:04:26;8.07;;;6.53;;
14611;SDS011;7392;52.078;11.650;2024-02-26T13:06:56;8.10;;;6.10;;
14611;SDS011;7392;52.078;11.650;2024-02-26T13:09:31;7.20;;;6.17;;
14611;SDS011;7392;52.078;11.650;2024-02-26T13:12:00;7.00;;;6.30;;
14611;SDS011;7392;52.078;11.650;2024-02-26T13:14:31;7.87;;;6.30;;
14611;SDS011;7392;52.078;11.650;2024-02-26T13:17:00;6.13;;;5.53;;
14611;SDS011;7392;52.078;11.650;2024-02-26T13:19:29;7.97;;;6.30;;
14611;SDS011;7392;52.078;11.650;2024-02-26T13:22:02;7.03;;;6.30;;
14611;SDS011;7392;52.078;11.650;2024-02-26T13:24:32;9.40;;;8.23;;
14611;SDS011;7392;52.078;11.650;2024-02-26T13:27:00;8.53;;;7.20;;
14611;SDS011;7392;52.078;11.650;2024-02-26T13:29:30;7.67;;;6.87;;
14611;SDS011;7392;52.078;11.650;2024-02-26T13:31:58;9.10;;;7.40;;
14611;SDS011;7392;52.078;11.650;2024-02-26T13:34:26;8.20;;;7.40;;
14611;SDS011;7392;52.078;11.650;2024-02-26T13:36:57;8.27;;;7.00;;
14611;SDS011;7392;52.078;11.650;2024-02-26T13:39:25;7.57;;;6.77;;
14611;SDS011;7392;52.078;11.650;2024-02-26T13:41:56;7.93;;;7.13;;
14611;SDS011;7392;52.078;11.650;2024-02-26T13:44:24;8.17;;;6.83;;
14611;SDS011;7392;52.078;11.650;2024-02-26T13:46:52;7.80;;;7.00;;
14611;SDS011;7392;52.078;11.650;2024-02-26T13:49:20;8.27;;;7.27;;
14611;SDS011;7392;52.078;11.650;2024-02-26T13:51:48;7.80;;;7.00;;
14611;SDS011;7392;52.078;11.650;2024-02-26T13:54:16;7.57;;;6.87;;
14611;SDS011;7392;52.078;11.650;2024-02-26T13:56:45;8.33;;;7.23;;
14611;SDS011;7392;52.078;11.650;2024-02-26T13:59:15;8.33;;;6.73;;
14611;SDS011;7392;52.078;11.650;2024-02-26T14:01:43;7.77;;;6.73;;
14611;SDS011;7392;52.078;11.650;2024-02-26T14:04:11;7.30;;;6.60;;
14611;SDS011;7392;52.078;11.650;2024-02-26T14:06:39;9.17;;;7.47;;
14611;SDS011;7392;52.078;11.650;2024-02-26T14:09:07;8.43;;;7.03;;
14611;SDS011;7392;52.078;11.650;2024-02-26T14:11:36;7.97;;;7.17;;
14611;SDS011;7392;52.078;11.650;2024-02-26T14:14:06;7.03;;;6.37;;
14611;SDS011;7392;52.078;11.650;2024-02-26T14:16:35;8.00;;;6.47;;
14611;SDS011;7392;52.078;11.650;2024-02-26T14:19:03;8.80;;;7.13;;
14611;SDS011;7392;52.078;11.650;2024-02-26T14:21:31;6.80;;;6.10;;
14611;SDS011;7392;52.078;11.650;2024-02-26T14:23:59;9.53;;;7.03;;
14611;SDS011;7392;52.078;11.650;2024-02-26T14:26:27;10.00;;;6.83;;
14611;SDS011;7392;52.078;11.650;2024-02-26T14:28:55;8.23;;;6.47;;
14611;SDS011;7392;52.078;11.650;2024-02-26T14:31:23;7.90;;;6.57;;
14611;SDS011;7392;52.078;11.650;2024-02-26T14:33:53;7.40;;;6.43;;
14611;SDS011;7392;52.078;11.650;2024-02-26T14:36:21;8.03;;;7.20;;
14611;SDS011;7392;52.078;11.650;2024-02-26T14:38:49;7.87;;;6.93;;
14611;SDS011;7392;52.078;11.650;2024-02-26T14:41:17;8.03;;;7.23;;
14611;SDS011;7392;52.078;11.650;2024-02-26T14:43:45;7.97;;;6.70;;
14611;SDS011;7392;52.078;11.650;2024-02-26T14:46:13;7.53;;;6.33;;
14611;SDS011;7392;52.078;11.650;2024-02-26T14:48:41;6.73;;;5.97;;
14611;SDS011;7392;52.078;11.650;2024-02-26T14:51:11;7.87;;;5.97;;
14611;SDS011;7392;52.078;11.650;2024-02-26T14:53:38;7.17;;;6.20;;
14611;SDS011;7392;52.078;11.650;2024-02-26T14:56:07;8.27;;;6.10;;
14611;SDS011;7392;52.078;11.650;2024-02-26T14:58:35;6.73;;;5.40;;